Back to top

Sheridan, WY weather

Sheridan County Airport, Sheridan, WY: 8/18/2022 04:53
Visibility10 statute milesclear sky
View 7-Day Forecast
Area Summary
Sky/CloudsSky Clear
Weather [last 24 hours]None
Pressure30.19 in.Hg (1022 hPa)
Dew Point48 °F (8.9 °C)
Relative Humidity71.8 %
Temperature57 °F (13.9 °C)red thermometer
Reading TimeMinimum to Maximum Temperature
6-hr ending 8/17@23:5362.1 °F to 91 °F (16.7 °C to 32.8 °C)
6-hr ending 8/17@17:5391 °F to 95 °F (32.8 °C to 35 °C)
6-hr ending 8/17@05:5355.9 °F to 66.9 °F (13.3 °C to 19.4 °C)
24-hr ending 8/18@00:5355.9 °F to 95 °F (13.3 °C to 35 °C)
Wind4.6 MPH (4 KT) green arrow pointing 157.5 degrees
Wind FromSouth/Southeast (160 Degrees)
Rolling 24-hr Peak Wind32.2 MPH (28 KT) on 8/17@16:50
Rolling 24-hr Peak Wind FromNorth/Northwest (330 Degrees)
Twilight Begins05:42Sunshine Yesterday
Sunrise06:14N/A
Sunset20:09
Twilight Ends20:40
METARKSHR 181053Z AUTO 16004KT 10SM CLR 14/09 A3019 RMK AO2 SLP186 T01390089
Tags: